Time;durP1;ratioP1;P1;durP2;ratioP2;P2;SDS_P1;SDS_P2;PMS_P1;PMS_P2;Temp;Humidity;BMP_temperature;BMP_pressure;BME280_temperature;BME280_humidity;BME280_pressure;Samples;Min_cycle;Max_cycle;Signal;HPM_P1;HPM_P2
2022/02/12 00:03:28;;;;;;;20.37;8.67;;;;;-0.20;102803.00;;;;10520467;28;20209;-78
2022/02/12 00:08:30;;;;;;;27.67;9.27;;;;;0.00;102798.00;;;;10526474;28;20209;-78
2022/02/12 00:13:32;;;;;;;17.50;8.13;;;;;0.10;102802.00;;;;10516583;28;20219;-78
2022/02/12 00:18:34;;;;;;;22.83;8.57;;;;;0.00;102798.00;;;;10507740;28;20587;-78
2022/02/12 00:23:35;;;;;;;21.10;7.63;;;;;-0.10;102786.00;;;;10499719;28;20315;-78
2022/02/12 00:28:37;;;;;;;26.40;10.07;;;;;0.00;102787.00;;;;10517507;28;20195;-78
2022/02/12 00:33:39;;;;;;;23.00;9.37;;;;;0.10;102786.00;;;;10502488;28;20297;-77
2022/02/12 00:38:41;;;;;;;28.23;8.90;;;;;0.10;102777.00;;;;10522745;28;20269;-77
2022/02/12 00:43:43;;;;;;;17.27;7.53;;;;;0.30;102776.00;;;;10505484;28;20292;-77
2022/02/12 00:48:47;;;;;;;25.47;9.13;;;;;0.40;102771.00;;;;10506400;28;20197;-77
2022/02/12 00:53:49;;;;;;;20.60;8.43;;;;;0.40;102763.00;;;;10545319;28;20267;-77
2022/02/12 00:58:52;;;;;;;20.00;8.47;;;;;0.30;102759.00;;;;10508637;28;20342;-77
2022/02/12 01:03:54;;;;;;;26.90;9.57;;;;;0.20;102757.00;;;;10523220;28;20748;-78
2022/02/12 01:08:56;;;;;;;16.43;9.47;;;;;-0.10;102747.00;;;;10526185;28;20185;-78
2022/02/12 01:13:57;;;;;;;26.10;10.50;;;;;-0.30;102749.00;;;;10539085;28;20699;-78
2022/02/12 01:18:59;;;;;;;21.03;8.83;;;;;-0.50;102748.00;;;;10536997;28;20196;-77
2022/02/12 01:24:01;;;;;;;26.07;10.83;;;;;-0.50;102737.00;;;;10523384;28;20537;-79
2022/02/12 01:29:04;;;;;;;24.77;9.50;;;;;-0.40;102735.00;;;;10503756;28;20307;-78
2022/02/12 01:34:06;;;;;;;23.80;10.77;;;;;-0.30;102732.00;;;;10504582;28;20188;-77
2022/02/12 01:39:08;;;;;;;20.60;9.73;;;;;-0.30;102724.00;;;;10525910;28;20284;-78
2022/02/12 01:44:10;;;;;;;17.37;9.87;;;;;-0.40;102729.00;;;;10522341;28;20204;-78
2022/02/12 01:49:12;;;;;;;22.70;10.03;;;;;-0.30;102702.00;;;;10485091;28;20340;-77
2022/02/12 01:54:14;;;;;;;18.70;9.73;;;;;-0.20;102711.00;;;;10520371;28;20224;-78
2022/02/12 01:59:19;;;;;;;19.47;9.13;;;;;-0.20;102698.00;;;;10539433;28;20671;-78
2022/02/12 02:04:23;;;;;;;19.97;10.03;;;;;-0.20;102696.00;;;;10537255;28;20273;-78
2022/02/12 02:09:28;;;;;;;21.80;9.60;;;;;-0.20;102700.00;;;;10542602;28;20291;-77
2022/02/12 02:14:39;;;;;;;16.47;9.37;;;;;-0.20;102699.00;;;;10522372;28;20609;-78
2022/02/12 02:19:41;;;;;;;21.97;9.67;;;;;-0.10;102692.00;;;;10523768;28;20197;-78
2022/02/12 02:24:43;;;;;;;20.20;9.57;;;;;-0.10;102698.00;;;;10502074;28;20624;-77
2022/02/12 02:29:45;;;;;;;23.23;9.27;;;;;-0.10;102675.00;;;;10502801;28;20197;-78
2022/02/12 02:34:54;;;;;;;26.33;8.97;;;;;-0.10;102684.00;;;;10498753;28;20217;-77
2022/02/12 02:39:55;;;;;;;21.07;9.43;;;;;-0.10;102674.00;;;;10538805;28;20290;-78
2022/02/12 02:44:58;;;;;;;18.63;9.00;;;;;-0.10;102681.00;;;;10518078;28;20714;-77
2022/02/12 02:50:01;;;;;;;21.13;8.43;;;;;-0.10;102673.00;;;;10513330;28;20196;-78
2022/02/12 03:00:26;;;;;;;17.73;9.00;;;;;-0.20;102664.00;;;;10535682;28;20192;-78
2022/02/12 03:05:28;;;;;;;18.23;9.10;;;;;-0.20;102646.00;;;;10514733;28;20278;-77
2022/02/12 03:10:30;;;;;;;24.67;9.83;;;;;-0.20;102642.00;;;;10518621;28;20669;-78
2022/02/12 03:15:32;;;;;;;23.17;8.37;;;;;-0.20;102633.00;;;;10510788;28;20205;-78
2022/02/12 03:20:34;;;;;;;20.37;8.83;;;;;-0.20;102628.00;;;;10506168;28;20215;-78
2022/02/12 03:25:37;;;;;;;22.87;9.47;;;;;-0.20;102621.00;;;;10525483;28;20184;-78
2022/02/12 03:30:42;;;;;;;25.87;10.03;;;;;-0.30;102622.00;;;;10486646;28;20185;-77
2022/02/12 03:35:49;;;;;;;17.70;9.10;;;;;-0.30;102622.00;;;;10523304;28;20220;-78
2022/02/12 03:40:54;;;;;;;26.07;9.20;;;;;-0.30;102610.00;;;;10527357;28;20196;-77
2022/02/12 03:45:57;;;;;;;21.50;8.33;;;;;-0.30;102588.00;;;;10532918;28;20207;-78
2022/02/12 03:50:59;;;;;;;20.93;8.97;;;;;-0.30;102596.00;;;;10515205;28;20196;-78
2022/02/12 03:56:01;;;;;;;18.77;8.90;;;;;-0.30;102604.00;;;;10536329;28;20891;-78
2022/02/12 04:01:03;;;;;;;23.43;8.87;;;;;-0.30;102601.00;;;;10515113;28;20759;-79
2022/02/12 04:06:05;;;;;;;26.20;8.73;;;;;-0.10;102584.00;;;;10495251;28;20718;-78
2022/02/12 04:11:07;;;;;;;16.17;8.07;;;;;0.00;102596.00;;;;10516725;28;20274;-78
2022/02/12 04:16:11;;;;;;;19.87;9.67;;;;;0.10;102589.00;;;;10509235;28;20216;-78
2022/02/12 04:21:13;;;;;;;23.73;9.23;;;;;0.00;102592.00;;;;10526180;28;20229;-78
2022/02/12 04:26:15;;;;;;;24.80;9.50;;;;;-0.10;102589.00;;;;10506989;28;20609;-79
2022/02/12 04:31:17;;;;;;;26.60;8.97;;;;;-0.10;102576.00;;;;10523043;28;20189;-78
2022/02/12 04:36:19;;;;;;;19.03;8.70;;;;;-0.20;102568.00;;;;10527976;28;20205;-78
2022/02/12 04:41:21;;;;;;;25.90;9.90;;;;;-0.30;102569.00;;;;10507938;28;20944;-79
2022/02/12 04:46:34;;;;;;;24.63;8.67;;;;;-0.40;102564.00;;;;10523822;28;20184;-79
2022/02/12 04:51:36;;;;;;;27.57;9.07;;;;;-0.50;102569.00;;;;10526487;28;20233;-79
2022/02/12 04:56:38;;;;;;;26.50;10.03;;;;;-0.60;102560.00;;;;10542606;28;20209;-79
2022/02/12 05:01:40;;;;;;;25.83;8.87;;;;;-0.80;102569.00;;;;10507993;28;20254;-79
2022/02/12 05:06:42;;;;;;;20.17;8.67;;;;;-0.90;102560.00;;;;10521345;28;20634;-80
2022/02/12 05:11:47;;;;;;;20.07;8.07;;;;;-0.80;102566.00;;;;10506995;28;20463;-79
2022/02/12 05:16:49;;;;;;;18.47;6.97;;;;;-0.70;102550.00;;;;10484732;28;20740;-79
2022/02/12 05:21:51;;;;;;;17.17;7.27;;;;;-0.70;102543.00;;;;10522822;28;20250;-79
2022/02/12 05:26:52;;;;;;;16.13;7.60;;;;;-0.70;102534.00;;;;10517467;28;20284;-79
2022/02/12 05:31:57;;;;;;;14.83;7.33;;;;;-0.70;102537.00;;;;10504362;28;20184;-79
2022/02/12 05:36:59;;;;;;;18.63;6.73;;;;;-0.70;102526.00;;;;10519270;28;20706;-79
2022/02/12 05:42:00;;;;;;;22.67;8.20;;;;;-0.80;102511.00;;;;10522530;28;20203;-79
2022/02/12 05:47:03;;;;;;;13.73;6.70;;;;;-0.80;102517.00;;;;10495862;28;20792;-78
2022/02/12 05:52:05;;;;;;;21.90;7.33;;;;;-0.90;102502.00;;;;10537737;28;20184;-78
2022/02/12 05:57:07;;;;;;;18.53;8.17;;;;;-0.90;102500.00;;;;10543469;28;20222;-78
2022/02/12 06:02:09;;;;;;;19.03;7.23;;;;;-0.80;102497.00;;;;10549466;28;20193;-78
2022/02/12 06:07:10;;;;;;;16.23;6.80;;;;;-0.70;102483.00;;;;10543367;28;20266;-78
2022/02/12 06:12:13;;;;;;;12.27;7.40;;;;;-0.70;102479.00;;;;10521541;28;20214;-78
2022/02/12 06:17:14;;;;;;;13.50;6.63;;;;;-0.70;102475.00;;;;10469829;28;20231;-78
2022/02/12 06:22:17;;;;;;;13.53;7.27;;;;;-0.70;102462.00;;;;10503211;28;20247;-79
2022/02/12 06:27:19;;;;;;;19.37;6.53;;;;;-0.70;102459.00;;;;10490364;28;20201;-79
2022/02/12 06:32:21;;;;;;;10.00;6.53;;;;;-0.70;102459.00;;;;10510045;28;20231;-78
2022/02/12 06:37:24;;;;;;;18.80;7.23;;;;;-0.70;102459.00;;;;10479186;28;20201;-78
2022/02/12 06:42:26;;;;;;;13.93;6.37;;;;;-0.60;102449.00;;;;10501986;28;20233;-78
2022/02/12 06:47:28;;;;;;;16.27;6.97;;;;;-0.60;102441.00;;;;10483767;28;20198;-79
2022/02/12 06:52:30;;;;;;;19.70;7.03;;;;;-0.70;102435.00;;;;10510381;28;20194;-79
2022/02/12 06:57:32;;;;;;;18.00;6.63;;;;;-0.70;102438.00;;;;10510660;28;20198;-78
2022/02/12 07:02:34;;;;;;;20.47;6.77;;;;;-0.70;102445.00;;;;10523590;28;20239;-78
2022/02/12 07:07:48;;;;;;;12.10;6.03;;;;;-0.60;102446.00;;;;10555052;28;20221;-78
2022/02/12 07:12:50;;;;;;;22.93;6.13;;;;;-0.50;102435.00;;;;10490647;28;20209;-78
2022/02/12 07:17:53;;;;;;;18.60;5.70;;;;;-0.50;102440.00;;;;10489046;28;20201;-78
2022/02/12 07:22:56;;;;;;;14.80;6.40;;;;;-0.40;102436.00;;;;10499826;28;20196;-79
2022/02/12 07:27:58;;;;;;;20.53;6.33;;;;;-0.30;102433.00;;;;10492717;28;20253;-78
2022/02/12 07:33:00;;;;;;;20.70;6.13;;;;;-0.20;102448.00;;;;10496305;28;20189;-78
2022/02/12 07:38:02;;;;;;;18.50;6.00;;;;;-0.20;102440.00;;;;10493772;28;20201;-79
2022/02/12 07:43:06;;;;;;;21.23;6.53;;;;;-0.10;102445.00;;;;10503863;28;20209;-78
2022/02/12 07:48:11;;;;;;;17.80;5.70;;;;;-0.10;102441.00;;;;10482116;28;20566;-79
2022/02/12 07:53:14;;;;;;;15.37;6.40;;;;;0.00;102433.00;;;;10512048;28;20189;-78
2022/02/12 07:58:16;;;;;;;20.87;6.23;;;;;0.00;102421.00;;;;10485198;28;20197;-79
2022/02/12 08:03:18;;;;;;;20.10;7.20;;;;;0.00;102426.00;;;;10521941;28;20235;-79
2022/02/12 08:08:20;;;;;;;13.93;6.57;;;;;0.00;102422.00;;;;10536943;28;20740;-79
2022/02/12 08:13:21;;;;;;;13.87;6.53;;;;;0.00;102422.00;;;;10490043;28;20289;-78
2022/02/12 08:18:23;;;;;;;15.80;6.03;;;;;0.00;102409.00;;;;10528593;28;20327;-79
2022/02/12 08:23:25;;;;;;;15.43;6.20;;;;;0.10;102408.00;;;;10528551;28;20302;-78
2022/02/12 08:28:27;;;;;;;15.03;6.40;;;;;0.20;102412.00;;;;10524199;28;20189;-78
2022/02/12 08:33:31;;;;;;;16.03;6.43;;;;;0.40;102409.00;;;;10540659;28;20189;-78
2022/02/12 08:38:34;;;;;;;12.47;5.57;;;;;0.60;102407.00;;;;10522287;28;20197;-78
2022/02/12 08:43:35;;;;;;;12.90;5.30;;;;;0.80;102400.00;;;;10546193;28;20239;-78
2022/02/12 08:48:37;;;;;;;11.83;5.37;;;;;1.40;102389.00;;;;10487343;28;20185;-78
2022/02/12 08:53:39;;;;;;;13.53;6.90;;;;;2.10;102385.00;;;;10499758;28;20192;-79
2022/02/12 08:58:41;;;;;;;11.77;6.10;;;;;2.60;102383.00;;;;10530928;28;20189;-78
2022/02/12 09:03:46;;;;;;;11.53;5.40;;;;;3.10;102382.00;;;;10481958;28;20299;-78
2022/02/12 09:08:51;;;;;;;11.47;5.80;;;;;3.60;102374.00;;;;10494276;28;20261;-78
2022/02/12 09:13:54;;;;;;;9.07;4.03;;;;;4.00;102373.00;;;;10540620;28;20237;-78
2022/02/12 09:18:56;;;;;;;14.53;5.53;;;;;4.30;102356.00;;;;10506819;28;20682;-78
2022/02/12 09:23:58;;;;;;;12.37;5.10;;;;;4.50;102350.00;;;;10528111;28;20288;-78
2022/02/12 09:29:03;;;;;;;12.00;4.33;;;;;4.90;102337.00;;;;10470173;28;20189;-78
2022/02/12 09:34:08;;;;;;;10.07;4.43;;;;;5.10;102342.00;;;;10483030;28;20530;-78
2022/02/12 09:39:10;;;;;;;8.57;4.67;;;;;5.40;102336.00;;;;10463545;28;20201;-76
2022/02/12 09:44:12;;;;;;;11.83;4.57;;;;;5.70;102329.00;;;;10486288;28;20288;-77
2022/02/12 09:49:14;;;;;;;15.83;4.47;;;;;5.90;102323.00;;;;10535354;28;20201;-76
2022/02/12 09:54:16;;;;;;;10.20;4.03;;;;;6.30;102318.00;;;;10476805;28;20224;-76
2022/02/12 09:59:18;;;;;;;12.10;4.90;;;;;6.60;102314.00;;;;10516901;28;20193;-76
2022/02/12 10:04:21;;;;;;;14.93;4.70;;;;;6.90;102296.00;;;;10497785;28;20253;-76
2022/02/12 10:09:23;;;;;;;9.70;3.60;;;;;7.20;102289.00;;;;10504092;28;20645;-76
2022/02/12 10:14:26;;;;;;;9.33;3.90;;;;;7.40;102282.00;;;;10519161;28;20251;-77
2022/02/12 10:19:38;;;;;;;12.70;4.50;;;;;7.60;102271.00;;;;10504611;28;20223;-77
2022/02/12 10:25:04;;;;;;;14.23;4.03;;;;;7.80;102264.00;;;;10525834;28;20219;-76
2022/02/12 10:30:06;;;;;;;10.30;3.97;;;;;8.20;102264.00;;;;10483645;28;20646;-76
2022/02/12 10:35:10;;;;;;;12.07;3.80;;;;;8.30;102260.00;;;;10499794;28;20242;-76
2022/02/12 10:40:12;;;;;;;12.50;4.10;;;;;8.50;102249.00;;;;10492471;28;20695;-76
2022/02/12 10:45:18;;;;;;;13.07;3.87;;;;;8.70;102241.00;;;;10508787;28;20223;-76
2022/02/12 10:50:23;;;;;;;8.47;3.17;;;;;9.00;102234.00;;;;10501726;28;20280;-77
2022/02/12 10:55:40;;;;;;;9.47;3.33;;;;;9.10;102230.00;;;;10501156;28;20188;-77
2022/02/12 11:00:43;;;;;;;10.37;3.03;;;;;9.30;102231.00;;;;10484344;28;20200;-76
2022/02/12 11:05:51;;;;;;;7.70;2.90;;;;;9.40;102219.00;;;;10501333;28;20221;-76
2022/02/12 11:10:53;;;;;;;8.83;2.97;;;;;9.70;102222.00;;;;10459892;28;20718;-77
2022/02/12 11:15:55;;;;;;;8.23;3.50;;;;;9.90;102216.00;;;;10516533;28;20201;-76
2022/02/12 11:20:57;;;;;;;9.27;2.60;;;;;10.10;102209.00;;;;10501032;28;20197;-77
2022/02/12 11:26:02;;;;;;;10.07;3.30;;;;;10.30;102192.00;;;;10493009;28;20703;-76
2022/02/12 11:31:27;;;;;;;13.17;3.63;;;;;10.40;102183.00;;;;10458995;28;20193;-76
2022/02/12 11:36:32;;;;;;;9.17;3.63;;;;;10.60;102174.00;;;;10494274;28;20197;-76
2022/02/12 11:41:43;;;;;;;9.17;3.70;;;;;10.60;102168.00;;;;10462903;28;20649;-76
2022/02/12 11:46:51;;;;;;;13.47;4.10;;;;;10.50;102159.00;;;;10521609;28;20216;-76
2022/02/12 11:51:54;;;;;;;7.47;2.97;;;;;10.40;102150.00;;;;10476118;28;20251;-76
2022/02/12 11:56:56;;;;;;;12.60;3.30;;;;;10.50;102138.00;;;;10534197;28;20580;-77
2022/02/12 12:01:58;;;;;;;7.57;3.10;;;;;10.60;102121.00;;;;10514163;28;20235;-76
2022/02/12 12:07:09;;;;;;;11.97;3.20;;;;;10.90;102122.00;;;;10484446;28;20235;-76
2022/02/12 12:12:14;;;;;;;12.77;3.50;;;;;10.90;102107.00;;;;10448003;28;20190;-77
2022/02/12 12:17:17;;;;;;;10.17;3.13;;;;;10.90;102082.00;;;;10466816;28;20241;-76
2022/02/12 12:22:19;;;;;;;6.80;2.60;;;;;10.90;102082.00;;;;10460946;28;20282;-76
2022/02/12 12:27:21;;;;;;;8.07;2.43;;;;;11.00;102072.00;;;;10516554;28;20196;-76
2022/02/12 12:32:24;;;;;;;7.90;2.77;;;;;11.10;102059.00;;;;10516404;28;20201;-76
2022/02/12 12:37:27;;;;;;;5.47;2.50;;;;;11.20;102047.00;;;;10502749;28;20200;-76
2022/02/12 12:42:31;;;;;;;7.20;2.90;;;;;11.50;102041.00;;;;10507956;28;20255;-76
2022/02/12 12:47:34;;;;;;;9.47;2.83;;;;;11.50;102039.00;;;;10540738;28;20221;-77
2022/02/12 12:52:35;;;;;;;7.30;2.90;;;;;11.40;102025.00;;;;10535837;28;20295;-76
2022/02/12 12:57:41;;;;;;;6.07;2.53;;;;;11.20;102015.00;;;;10480244;28;20276;-76
2022/02/12 13:02:50;;;;;;;5.80;2.60;;;;;11.40;101991.00;;;;10502744;28;20304;-77
2022/02/12 13:07:55;;;;;;;8.83;2.97;;;;;11.50;101983.00;;;;10488109;28;20217;-76
2022/02/12 13:13:14;;;;;;;6.23;2.90;;;;;11.50;101969.00;;;;10536396;28;20203;-76
2022/02/12 13:18:17;;;;;;;9.40;3.20;;;;;11.60;101966.00;;;;10501546;28;20216;-76
2022/02/12 13:23:22;;;;;;;5.47;2.87;;;;;11.70;101949.00;;;;10522274;28;20243;-77
2022/02/12 13:28:24;;;;;;;5.57;3.23;;;;;11.70;101948.00;;;;10496531;28;20204;-76
2022/02/12 13:33:29;;;;;;;5.63;3.30;;;;;11.60;101937.00;;;;10517778;28;21024;-76
2022/02/12 13:38:34;;;;;;;5.70;2.90;;;;;11.50;101926.00;;;;10527929;28;20292;-76
2022/02/12 13:43:45;;;;;;;9.43;3.43;;;;;11.40;101927.00;;;;10492949;28;20240;-76
2022/02/12 13:48:47;;;;;;;6.93;2.93;;;;;11.20;101911.00;;;;10537081;28;20201;-76
2022/02/12 13:53:52;;;;;;;9.50;4.60;;;;;11.30;101900.00;;;;10537635;28;20226;-76
2022/02/12 13:58:56;;;;;;;10.33;3.37;;;;;11.40;101892.00;;;;10479446;28;20266;-76
2022/02/12 14:03:58;;;;;;;9.33;3.70;;;;;11.20;101880.00;;;;10542983;28;20225;-76
2022/02/12 14:09:00;;;;;;;8.60;4.20;;;;;11.30;101870.00;;;;10489263;28;20257;-76
2022/02/12 14:14:04;;;;;;;10.80;4.90;;;;;11.00;101860.00;;;;10491255;28;20199;-76
2022/02/12 14:19:06;;;;;;;9.23;5.07;;;;;10.90;101862.00;;;;10524402;28;20751;-76
2022/02/12 14:24:09;;;;;;;13.07;5.67;;;;;11.50;101845.00;;;;10514449;28;20209;-76
2022/02/12 14:29:11;;;;;;;10.47;4.93;;;;;13.10;101823.00;;;;10482064;28;20193;-75
2022/02/12 14:34:13;;;;;;;12.90;6.13;;;;;13.80;101799.00;;;;10498054;28;20213;-75
2022/02/12 14:39:14;;;;;;;11.57;5.57;;;;;14.10;101799.00;;;;10523617;28;20203;-75
2022/02/12 14:44:16;;;;;;;12.77;5.10;;;;;12.30;101814.00;;;;10464821;28;20213;-76
2022/02/12 14:49:18;;;;;;;10.07;2.87;;;;;12.30;101787.00;;;;10510908;28;20269;-76
2022/02/12 14:54:21;;;;;;;5.93;3.00;;;;;12.10;101794.00;;;;10499426;28;20300;-76
2022/02/12 14:59:23;;;;;;;10.33;3.70;;;;;12.70;101758.00;;;;10508189;28;20197;-77
2022/02/12 15:04:24;;;;;;;11.73;3.60;;;;;12.90;101737.00;;;;10524723;28;20308;-76
2022/02/12 15:09:26;;;;;;;7.47;3.07;;;;;14.30;101744.00;;;;10482789;28;20288;-76
2022/02/12 15:14:28;;;;;;;8.87;3.90;;;;;14.70;101697.00;;;;10502415;28;20196;-76
2022/02/12 15:19:30;;;;;;;9.20;2.70;;;;;14.60;101701.00;;;;10518288;28;20270;-76
2022/02/12 15:24:33;;;;;;;10.13;5.07;;;;;14.60;101677.00;;;;10529662;28;20205;-76
2022/02/12 15:29:36;;;;;;;6.23;3.03;;;;;13.50;101709.00;;;;10498417;28;20194;-77
2022/02/12 15:34:38;;;;;;;6.43;2.43;;;;;11.40;101734.00;;;;10537128;28;20221;-77
2022/02/12 15:39:41;;;;;;;6.87;2.87;;;;;9.90;101737.00;;;;10502035;28;20192;-76
2022/02/12 15:44:44;;;;;;;8.23;2.60;;;;;9.30;101715.00;;;;10518573;28;20764;-75
2022/02/12 15:49:49;;;;;;;4.57;2.43;;;;;8.70;101732.00;;;;10490855;28;20200;-76
2022/02/12 15:54:51;;;;;;;3.97;2.00;;;;;8.00;101719.00;;;;10485347;28;20275;-77
2022/02/12 15:59:56;;;;;;;10.37;2.40;;;;;7.60;101721.00;;;;10549913;28;20208;-77
2022/02/12 16:04:58;;;;;;;5.70;2.50;;;;;7.20;101717.00;;;;10515626;28;20221;-77
2022/02/12 16:10:03;;;;;;;8.63;3.53;;;;;7.00;101710.00;;;;10512861;28;20220;-77
2022/02/12 16:15:05;;;;;;;7.63;2.80;;;;;6.80;101713.00;;;;10498474;28;20220;-78
2022/02/12 16:20:08;;;;;;;7.63;3.43;;;;;6.60;101709.00;;;;10512581;28;20220;-77
2022/02/12 16:25:10;;;;;;;10.07;3.00;;;;;6.40;101701.00;;;;10526618;28;20232;-77
2022/02/12 16:30:12;;;;;;;14.17;5.47;;;;;6.20;101688.00;;;;10542534;28;20193;-77
2022/02/12 16:35:14;;;;;;;7.03;3.60;;;;;6.00;101682.00;;;;10541025;28;20593;-78
2022/02/12 16:40:16;;;;;;;16.20;7.07;;;;;5.80;101703.00;;;;10508199;28;20193;-77
2022/02/12 16:45:18;;;;;;;13.27;5.90;;;;;5.60;101704.00;;;;10544599;28;20235;-78
2022/02/12 16:50:20;;;;;;;7.27;3.60;;;;;5.40;101692.00;;;;10482364;28;20287;-77
2022/02/12 16:55:24;;;;;;;9.23;3.20;;;;;5.20;101689.00;;;;10467788;28;20268;-78
2022/02/12 17:00:28;;;;;;;4.57;2.80;;;;;5.00;101687.00;;;;10484571;28;20194;-78
2022/02/12 17:05:31;;;;;;;4.60;2.63;;;;;4.90;101678.00;;;;10489819;28;20261;-78
2022/02/12 17:10:35;;;;;;;8.50;3.60;;;;;4.80;101692.00;;;;10509191;28;20199;-77
2022/02/12 17:15:39;;;;;;;9.93;3.80;;;;;4.60;101696.00;;;;10528825;28;20188;-78
2022/02/12 17:20:41;;;;;;;5.93;3.40;;;;;4.50;101689.00;;;;10549279;28;20666;-78
2022/02/12 17:25:45;;;;;;;10.13;5.20;;;;;4.40;101688.00;;;;10550068;28;20209;-78
2022/02/12 17:30:47;;;;;;;14.23;5.23;;;;;4.30;101693.00;;;;10549258;28;20245;-78
2022/02/12 17:35:49;;;;;;;9.67;5.63;;;;;4.20;101695.00;;;;10556997;28;20199;-78
2022/02/12 17:40:51;;;;;;;10.40;5.33;;;;;4.10;101677.00;;;;10541615;28;20333;-78
2022/02/12 17:45:53;;;;;;;13.90;4.70;;;;;4.10;101677.00;;;;10514952;28;20213;-78
2022/02/12 17:50:55;;;;;;;16.43;6.70;;;;;4.00;101671.00;;;;10550137;28;20196;-78
2022/02/12 17:55:58;;;;;;;14.40;6.50;;;;;3.90;101667.00;;;;10517204;28;20192;-78
2022/02/12 18:01:02;;;;;;;19.13;8.27;;;;;3.80;101671.00;;;;10529623;28;20245;-78
2022/02/12 18:06:03;;;;;;;14.63;8.03;;;;;3.70;101669.00;;;;10507529;28;20282;-78
2022/02/12 18:11:05;;;;;;;16.10;7.97;;;;;3.60;101662.00;;;;10507227;28;20276;-78
2022/02/12 18:16:07;;;;;;;12.70;7.10;;;;;3.60;101658.00;;;;10514092;28;20252;-78
2022/02/12 18:21:10;;;;;;;18.20;6.40;;;;;3.60;101650.00;;;;10531670;28;20291;-79
2022/02/12 18:26:12;;;;;;;7.67;5.37;;;;;3.60;101656.00;;;;10531606;28;20213;-78
2022/02/12 18:31:14;;;;;;;9.53;4.60;;;;;3.60;101648.00;;;;10544890;28;20188;-78
2022/02/12 18:36:17;;;;;;;8.67;4.77;;;;;3.50;101643.00;;;;10505209;28;20589;-79
2022/02/12 18:41:19;;;;;;;10.07;4.97;;;;;3.50;101645.00;;;;10473472;28;20201;-78
2022/02/12 18:46:22;;;;;;;12.93;5.43;;;;;3.50;101647.00;;;;10479487;28;20297;-78
2022/02/12 18:51:26;;;;;;;10.73;6.17;;;;;3.40;101633.00;;;;10496673;28;20198;-78
2022/02/12 18:56:28;;;;;;;11.60;5.90;;;;;3.20;101639.00;;;;10480487;28;20221;-78
2022/02/12 19:01:30;;;;;;;9.73;5.57;;;;;3.20;101622.00;;;;10479297;28;20235;-78
2022/02/12 19:06:34;;;;;;;17.63;5.90;;;;;3.10;101620.00;;;;10521423;28;20216;-79
2022/02/12 19:11:36;;;;;;;9.93;6.10;;;;;2.90;101607.00;;;;10471182;28;20509;-78
2022/02/12 19:16:39;;;;;;;12.20;6.80;;;;;2.90;101602.00;;;;10479427;28;20244;-78
2022/02/12 19:21:41;;;;;;;11.63;6.57;;;;;2.90;101589.00;;;;10446240;28;20197;-78
2022/02/12 19:26:43;;;;;;;17.53;6.60;;;;;2.90;101592.00;;;;10479999;28;20208;-79
2022/02/12 19:31:46;;;;;;;9.37;6.10;;;;;2.70;101592.00;;;;10462262;28;20213;-78
2022/02/12 19:36:48;;;;;;;12.57;6.43;;;;;2.70;101578.00;;;;10479230;28;20197;-78
2022/02/12 19:41:49;;;;;;;14.27;7.43;;;;;2.60;101577.00;;;;10526979;28;20291;-78
2022/02/12 19:46:51;;;;;;;15.90;6.87;;;;;2.50;101564.00;;;;10541404;28;20205;-78
2022/02/12 19:51:53;;;;;;;15.97;7.47;;;;;2.40;101567.00;;;;10511926;28;20243;-78
2022/02/12 19:56:55;;;;;;;15.37;7.30;;;;;2.40;101571.00;;;;10546192;28;20197;-78
2022/02/12 20:01:57;;;;;;;12.60;7.13;;;;;2.30;101559.00;;;;10546072;28;20556;-78
2022/02/12 20:07:01;;;;;;;12.47;5.87;;;;;2.40;101535.00;;;;10545442;28;20629;-78
2022/02/12 20:12:03;;;;;;;11.90;5.47;;;;;2.50;101545.00;;;;10511548;28;20189;-78
2022/02/12 20:17:05;;;;;;;12.07;6.70;;;;;2.50;101534.00;;;;10530971;28;20205;-78
2022/02/12 20:22:07;;;;;;;14.23;7.27;;;;;2.50;101533.00;;;;10530287;28;20204;-78
2022/02/12 20:27:10;;;;;;;12.27;5.90;;;;;2.50;101524.00;;;;10495819;28;20240;-78
2022/02/12 20:32:11;;;;;;;14.27;5.47;;;;;2.50;101540.00;;;;10502206;28;20194;-78
2022/02/12 20:37:13;;;;;;;13.90;5.27;;;;;2.60;101534.00;;;;10486142;28;20243;-78
2022/02/12 20:42:15;;;;;;;10.83;5.70;;;;;2.60;101540.00;;;;10516603;28;20243;-78
2022/02/12 20:47:19;;;;;;;12.10;5.70;;;;;2.60;101539.00;;;;10519079;28;20370;-78
2022/02/12 20:52:22;;;;;;;15.27;5.83;;;;;2.60;101540.00;;;;10526963;28;20199;-78
2022/02/12 20:57:25;;;;;;;10.63;5.50;;;;;2.50;101541.00;;;;10525403;28;20268;-78
2022/02/12 21:02:28;;;;;;;12.30;5.70;;;;;2.50;101524.00;;;;10525754;28;20242;-78
2022/02/12 21:07:32;;;;;;;13.50;5.97;;;;;2.40;101512.00;;;;10525990;28;20230;-78
2022/02/12 21:12:34;;;;;;;12.50;5.70;;;;;2.40;101503.00;;;;10509375;28;20288;-79
2022/02/12 21:17:37;;;;;;;15.63;6.30;;;;;2.40;101513.00;;;;10483409;28;20660;-78
2022/02/12 21:22:44;;;;;;;12.37;5.23;;;;;2.50;101505.00;;;;10483915;28;20267;-78
2022/02/12 21:28:00;;;;;;;15.20;6.60;;;;;2.50;101510.00;;;;10497746;28;20206;-78
2022/02/12 21:33:06;;;;;;;15.13;6.80;;;;;2.40;101519.00;;;;10530981;28;20189;-78
2022/02/12 21:38:08;;;;;;;12.57;5.97;;;;;2.40;101506.00;;;;10524777;28;20311;-78
2022/02/12 21:43:11;;;;;;;11.27;5.73;;;;;2.30;101497.00;;;;10491292;28;20231;-78
2022/02/12 21:48:15;;;;;;;11.07;5.97;;;;;2.30;101491.00;;;;10482071;28;20209;-78
2022/02/12 21:53:18;;;;;;;11.00;5.77;;;;;2.30;101495.00;;;;10482378;28;20193;-79
2022/02/12 21:58:20;;;;;;;12.83;5.50;;;;;2.30;101504.00;;;;10484397;28;20304;-78
2022/02/12 22:03:22;;;;;;;12.07;5.47;;;;;2.30;101495.00;;;;10522302;28;20238;-78
2022/02/12 22:08:23;;;;;;;10.80;5.50;;;;;2.30;101483.00;;;;10491950;28;20208;-78
2022/02/12 22:13:25;;;;;;;11.00;4.83;;;;;2.20;101481.00;;;;10493601;28;20656;-78
2022/02/12 22:18:27;;;;;;;8.00;5.23;;;;;2.10;101479.00;;;;10564387;28;20223;-78
2022/02/12 22:23:29;;;;;;;12.87;5.53;;;;;2.20;101485.00;;;;10565700;28;20323;-78
2022/02/12 22:28:31;;;;;;;15.73;5.90;;;;;2.20;101481.00;;;;10532832;28;20208;-78
2022/02/12 22:33:33;;;;;;;11.50;4.83;;;;;2.10;101478.00;;;;10522898;28;20173;-78
2022/02/12 22:38:35;;;;;;;10.27;5.40;;;;;2.10;101471.00;;;;10506290;28;20224;-78
2022/02/12 22:43:37;;;;;;;10.27;5.43;;;;;2.00;101477.00;;;;10522323;28;20213;-78
2022/02/12 22:48:39;;;;;;;12.00;5.57;;;;;1.90;101498.00;;;;10521449;28;20193;-78
2022/02/12 22:53:43;;;;;;;12.80;5.73;;;;;1.80;101497.00;;;;10522543;28;20242;-78
2022/02/12 22:58:47;;;;;;;8.03;5.20;;;;;1.70;101485.00;;;;10521840;28;20678;-79
2022/02/12 23:03:49;;;;;;;7.73;4.77;;;;;1.50;101478.00;;;;10505200;28;20240;-78
2022/02/12 23:08:54;;;;;;;10.17;5.20;;;;;1.50;101469.00;;;;10505367;28;20192;-78
2022/02/12 23:13:58;;;;;;;13.40;5.07;;;;;1.60;101463.00;;;;10510428;28;20238;-78
2022/02/12 23:19:04;;;;;;;11.90;4.63;;;;;1.50;101436.00;;;;10563619;28;20188;-78
2022/02/12 23:24:09;;;;;;;6.93;4.23;;;;;1.50;101417.00;;;;10563390;28;20208;-78
2022/02/12 23:29:12;;;;;;;7.50;4.20;;;;;1.70;101425.00;;;;10509399;28;20197;-78
2022/02/12 23:34:15;;;;;;;9.63;4.83;;;;;1.70;101417.00;;;;10504452;28;20652;-78
2022/02/12 23:39:17;;;;;;;8.67;4.60;;;;;1.80;101412.00;;;;10538348;28;20193;-78
2022/02/12 23:44:19;;;;;;;6.57;3.90;;;;;1.80;101398.00;;;;10548659;28;20244;-78
2022/02/12 23:49:21;;;;;;;9.47;4.43;;;;;1.80;101409.00;;;;10546081;28;20227;-78
2022/02/12 23:54:26;;;;;;;10.63;5.30;;;;;1.70;101394.00;;;;10512977;28;20180;-78
2022/02/12 23:59:28;;;;;;;9.70;4.73;;;;;1.70;101392.00;;;;10507475;28;20200;-78
